JA32NH RJTI-RJTI

Flight info

Callsign JA32NH
Flight time 0h 13m
Altitude 0000
Route KITASENJU
Aircraft EC35/L-S/S

Departure

Time 2026-04-12 06:48
Airport Tokyo Heliport (RJTI)

Arrival

Time 2026-04-12 07:01
Airport Tokyo Heliport (RJTI)
Time Latitude Longitude Altitude Speed Heading
2026-04-12 06:42 35.63714 139.83820 23 ft 0 kts 183°
2026-04-12 06:44 35.63699 139.83830 29 ft 4 kts 179°
2026-04-12 06:44 35.63676 139.83837 43 ft 6 kts 195°
2026-04-12 06:44 35.63587 139.83828 42 ft 10 kts 185°
2026-04-12 06:44 35.63560 139.83859 35 ft 8 kts 105°
2026-04-12 06:45 35.63571 139.83950 27 ft 10 kts 30°
2026-04-12 06:45 35.63695 139.83954 115 ft 29 kts 21°
2026-04-12 06:45 35.64039 139.83873 335 ft 72 kts 326°
2026-04-12 06:45 35.64247 139.83205 393 ft 102 kts 255°
2026-04-12 06:46 35.64123 139.82320 424 ft 107 kts 254°
2026-04-12 06:46 35.64043 139.81414 463 ft 104 kts 258°
2026-04-12 06:46 35.63985 139.80511 462 ft 108 kts 256°
2026-04-12 06:46 35.64049 139.79590 515 ft 111 kts 279°
2026-04-12 06:47 35.64364 139.78722 563 ft 112 kts 286°
2026-04-12 06:47 35.64586 139.77803 511 ft 112 kts 276°
2026-04-12 06:47 35.64823 139.76920 463 ft 112 kts 311°
2026-04-12 06:47 35.65558 139.76682 527 ft 118 kts 21°
2026-04-12 06:48 35.66280 139.77160 744 ft 116 kts 33°
2026-04-12 06:48 35.66984 139.77621 1020 ft 116 kts 31°
2026-04-12 06:48 35.67775 139.78097 987 ft 136 kts 28°
2026-04-12 06:48 35.68641 139.78547 1067 ft 133 kts 24°
2026-04-12 06:49 35.69464 139.78951 1213 ft 123 kts 24°
2026-04-12 06:49 35.70236 139.79338 1345 ft 118 kts 25°
2026-04-12 06:49 35.70950 139.79851 1387 ft 118 kts 38°
2026-04-12 06:49 35.71635 139.80358 1470 ft 114 kts 34°
2026-04-12 06:50 35.72358 139.80848 1348 ft 122 kts 29°
2026-04-12 06:50 35.73127 139.81236 1384 ft 115 kts 24°
2026-04-12 06:50 35.73888 139.81597 1303 ft 118 kts 23°
2026-04-12 06:50 35.74678 139.81797 1364 ft 116 kts
2026-04-12 06:51 35.75467 139.81630 1403 ft 115 kts 327°
2026-04-12 06:51 35.76002 139.80960 1457 ft 109 kts 280°
2026-04-12 06:51 35.75947 139.80104 1469 ft 101 kts 222°
2026-04-12 06:51 35.75338 139.79704 1331 ft 107 kts 186°
2026-04-12 06:52 35.74637 139.79891 1344 ft 104 kts 153°
2026-04-12 06:52 35.74256 139.80644 1164 ft 118 kts 93°
2026-04-12 06:52 35.74656 139.81505 1287 ft 121 kts 31°
2026-04-12 06:52 35.75458 139.81645 1523 ft 118 kts 337°
2026-04-12 06:53 35.76054 139.81028 1664 ft 111 kts 282°
2026-04-12 06:53 35.76034 139.80100 1464 ft 113 kts 231°
2026-04-12 06:53 35.75428 139.79597 1292 ft 108 kts 181°
2026-04-12 06:53 35.74775 139.79911 1274 ft 102 kts 137°
2026-04-12 06:54 35.74530 139.80718 1291 ft 106 kts 88°
2026-04-12 06:54 35.74979 139.81408 1371 ft 117 kts 20°
2026-04-12 06:54 35.75801 139.81336 1330 ft 121 kts 310°
2026-04-12 06:54 35.76098 139.80450 1416 ft 114 kts 254°
2026-04-12 06:55 35.75704 139.79668 1558 ft 107 kts 207°
2026-04-12 06:55 35.75017 139.79588 1678 ft 102 kts 158°
2026-04-12 06:55 35.74584 139.80311 1614 ft 119 kts 105°
2026-04-12 06:55 35.74690 139.81359 1519 ft 118 kts 113°
2026-04-12 06:56 35.74205 139.81944 1499 ft 98 kts 155°
2026-04-12 06:56 35.73631 139.82418 1432 ft 100 kts 151°
2026-04-12 06:56 35.73104 139.82974 1392 ft 100 kts 146°
2026-04-12 06:56 35.72590 139.83540 1335 ft 98 kts 145°
2026-04-12 06:57 35.72085 139.84066 1202 ft 95 kts 146°
2026-04-12 06:57 35.71582 139.84583 1121 ft 90 kts 147°
2026-04-12 06:57 35.71105 139.85050 1032 ft 87 kts 150°
2026-04-12 06:57 35.70534 139.85426 980 ft 97 kts 159°
2026-04-12 06:58 35.69866 139.85620 936 ft 98 kts 182°
2026-04-12 06:58 35.69223 139.85437 886 ft 94 kts 198°
2026-04-12 06:58 35.68642 139.85115 818 ft 90 kts 201°
2026-04-12 06:58 35.68081 139.84807 763 ft 87 kts 198°
2026-04-12 06:59 35.67521 139.84688 721 ft 80 kts 188°
2026-04-12 06:59 35.66984 139.84625 702 ft 74 kts 187°
2026-04-12 06:59 35.66481 139.84576 681 ft 71 kts 186°
2026-04-12 07:00 35.65536 139.84521 643 ft 67 kts 184°
2026-04-12 07:00 35.65047 139.84501 549 ft 75 kts 183°
2026-04-12 07:00 35.64513 139.84482 503 ft 76 kts 183°
2026-04-12 07:00 35.64000 139.84448 482 ft 72 kts 184°
2026-04-12 07:01 35.63521 139.84419 406 ft 61 kts 184°
2026-04-12 07:01 35.63308 139.84207 299 ft 35 kts 252°
2026-04-12 07:01 35.63430 139.83971 159 ft 34 kts 345°
2026-04-12 07:01 35.63564 139.83960 31 ft 4 kts 353°
2026-04-12 07:02 35.63600 139.83958 35 ft 8 kts 343°
2026-04-12 07:02 35.63634 139.83898 39 ft 7 kts 292°
2026-04-12 07:02 35.63640 139.83860 39 ft 5 kts 295°
2026-04-12 07:02 35.63685 139.83839 37 ft 7 kts 12°
2026-04-12 07:03 35.63736 139.83813 53 ft 9 kts 199°
2026-04-12 07:03 35.63713 139.83817 22 ft 0 kts 176°